Airfield :
LOGIN :

Register | Disclaimer

   EN    FR    IT 

 










Legend :    VFR   Marginal VFR   IFR   Intensive IFR   Very Intensive IFR
Visi :
Ceiling :
>= 8 km
>= 3000ft
5 to 8 km
1000 to 3000 ft
1500m to 5 km
500 to 1000 ft
800 to 1500m
200 to 500 ft
< 800m
< 200 ft
Symbols :   Thunderstorms  Fog  Heavy snow  Heavy precipitations  Wind > 20 kt
SIGMETs :     Misc.  Thunderstorms  Icing  Turbulence  Mountain Waves  Volcanic Ashes






- Airport Elevation : 70 ft
- IATA code : LEI


LEAM - Almeria

CURRENT METAR :
  • 251000Z 33005KT 260V360 9999 FEW040 SCT080 BKN090 14/09 Q1019

EXPIRED METARs :
  • 250930Z 33008KT 9999 -RA FEW040 13/09 Q1018
  • 250900Z 34007KT 300V010 9999 FEW040 13/08 Q1018
  • 250830Z 33009KT CAVOK 13/08 Q1018
  • 250800Z 33008KT 300V010 CAVOK 12/08 Q1018
  • 250730Z 33010KT CAVOK 11/08 Q1018

TAF TAF LEAM
Valid from the 25 at 09:00 until the 26 at 09:00 UTC


250800Z 2509/2609 35007KT 9999 FEW025 SCT040 TX15/2513Z TN07/2606Z
PROB30
TEMPO 2512/2515 4000 SHRA FEW025CB



MET'MAP, your aeronautical weather chart ! - Copyright ORBIFLY December 2007 - Disclaimer

ORBIFLY MET'MAP TEAM :

Programming & Development : Alexandra Zaïnal
Concept & original design : Baudouin d'Aumeries
Assistance for programming : Marc-Olivier Méhu
Technical & hardware support : Manuel Goepfert

Contact : metmap@orbifly.com




SOURCES & CREDITS :

   NOAA